Time;durP1;ratioP1;P1;durP2;ratioP2;P2;SDS_P1;SDS_P2;PMS_P1;PMS_P2;Temp;Humidity;BMP_temperature;BMP_pressure;BME280_temperature;BME280_humidity;BME280_pressure;Samples;Min_cycle;Max_cycle;Signal;HPM_P1;HPM_P2
2021/03/05 00:01:32;;;;;;;20.05;7.00;;;;;;;2.72;70.92;100227.59;124294;1112;23098;-55
2021/03/05 00:04:01;;;;;;;20.87;6.80;;;;;;;2.74;70.86;100225.18;124165;1112;23035;-56
2021/03/05 00:06:31;;;;;;;23.00;7.43;;;;;;;2.71;70.92;100215.78;124253;1112;23139;-56
2021/03/05 00:09:00;;;;;;;25.80;7.23;;;;;;;2.72;71.08;100225.62;124280;1112;23110;-57
2021/03/05 00:11:32;;;;;;;21.07;6.13;;;;;;;2.72;71.06;100222.86;124267;1112;23435;-56
2021/03/05 00:14:00;;;;;;;28.15;8.40;;;;;;;2.74;70.95;100227.94;124416;1112;23283;-56
2021/03/05 00:16:30;;;;;;;27.77;8.73;;;;;;;2.74;71.10;100233.45;124336;1112;23252;-56
2021/03/05 00:18:59;;;;;;;25.43;7.57;;;;;;;2.72;70.46;100231.13;124498;1112;23240;-56
2021/03/05 00:21:28;;;;;;;26.15;8.20;;;;;;;2.73;71.16;100229.91;124549;1112;23102;-54
2021/03/05 00:23:57;;;;;;;25.13;7.23;;;;;;;2.75;70.93;100232.27;124381;1112;23102;-57
2021/03/05 00:26:28;;;;;;;24.43;7.97;;;;;;;2.72;70.49;100238.61;124361;1112;23045;-56
2021/03/05 00:28:56;;;;;;;24.72;7.42;;;;;;;2.70;70.67;100233.53;124357;1112;27762;-57
2021/03/05 00:31:25;;;;;;;24.40;7.43;;;;;;;2.74;70.96;100227.94;124404;1112;23045;-58
2021/03/05 00:33:55;;;;;;;26.47;8.13;;;;;;;2.76;71.73;100233.80;124358;1112;23117;-57
2021/03/05 00:36:24;;;;;;;27.20;8.60;;;;;;;2.75;71.13;100229.51;124478;1112;23055;-60
2021/03/05 00:38:53;;;;;;;25.63;8.67;;;;;;;2.75;71.34;100233.02;124543;1111;27205;-53
2021/03/05 00:41:22;;;;;;;23.50;7.43;;;;;;;2.76;70.94;100233.80;124375;1112;23082;-56
2021/03/05 00:43:51;;;;;;;27.77;8.33;;;;;;;2.74;70.97;100231.48;124462;1112;23261;-53
2021/03/05 00:46:20;;;;;;;27.00;9.60;;;;;;;2.76;71.22;100233.80;124428;1112;23180;-56
2021/03/05 00:48:49;;;;;;;26.60;8.35;;;;;;;2.74;71.28;100234.23;124402;1112;24415;-57
2021/03/05 00:51:18;;;;;;;22.87;7.33;;;;;;;2.72;71.28;100236.64;124347;1112;27422;-59
2021/03/05 00:53:49;;;;;;;27.17;9.13;;;;;;;2.70;71.06;100238.27;124365;1113;23048;-54
2021/03/05 00:56:18;;;;;;;27.07;8.80;;;;;;;2.66;71.70;100243.08;124386;1112;23112;-55
2021/03/05 00:58:48;;;;;;;28.27;8.73;;;;;;;2.64;71.72;100232.48;124368;1112;26250;-54
2021/03/05 01:01:18;;;;;;;26.85;7.97;;;;;;;2.64;71.37;100243.51;124467;1112;23261;-57
2021/03/05 01:03:47;;;;;;;26.77;8.05;;;;;;;2.62;71.58;100236.86;124337;1112;26431;-52
2021/03/05 01:06:16;;;;;;;22.87;8.10;;;;;;;2.61;72.00;100232.56;124258;1112;23035;-56
2021/03/05 01:08:45;;;;;;;23.20;7.73;;;;;;;2.58;71.90;100230.65;124423;1110;23086;-54
2021/03/05 01:11:14;;;;;;;25.90;7.83;;;;;;;2.55;72.18;100225.97;124342;1112;23096;-56
2021/03/05 01:13:44;;;;;;;27.97;9.53;;;;;;;2.51;72.04;100234.32;124399;1112;26870;-54
2021/03/05 01:16:13;;;;;;;26.50;9.93;;;;;;;2.50;72.08;100232.78;124639;1112;23168;-56
2021/03/05 01:18:42;;;;;;;28.83;10.40;;;;;;;2.48;72.06;100231.64;124399;1111;23213;-56
2021/03/05 01:21:11;;;;;;;30.47;10.53;;;;;;;2.45;72.58;100230.51;124317;1112;23049;-56
2021/03/05 01:23:40;;;;;;;31.27;9.80;;;;;;;2.42;72.93;100236.88;124445;1112;27313;-56
2021/03/05 01:26:10;;;;;;;35.80;11.60;;;;;;;2.40;73.17;100239.28;124377;1111;23215;-58
2021/03/05 01:28:40;;;;;;;33.20;12.23;;;;;;;2.39;72.96;100234.96;124500;1112;23105;-54
2021/03/05 01:31:09;;;;;;;36.60;11.60;;;;;;;2.37;73.44;100235.39;124482;1112;23301;-56
2021/03/05 01:33:38;;;;;;;29.93;11.17;;;;;;;2.35;73.24;100242.52;124462;1112;23658;-55
2021/03/05 01:36:09;;;;;;;36.73;12.37;;;;;;;2.32;73.50;100249.64;124420;1112;23102;-55
2021/03/05 01:38:38;;;;;;;;;;;;;;;2.29;73.65;100255.23;124473;1112;23042;-57
2021/03/05 01:41:07;;;;;;;35.43;11.37;;;;;;;2.24;73.97;100244.69;124527;1112;21617;-53
2021/03/05 01:43:40;;;;;;;35.47;13.40;;;;;;;2.22;74.31;100249.84;124450;1112;23106;-55
2021/03/05 01:46:10;;;;;;;38.03;14.53;;;;;;;2.22;73.77;100244.34;124753;1112;27361;-55
2021/03/05 01:48:40;;;;;;;37.97;12.47;;;;;;;2.22;74.39;100250.63;124486;1112;23099;-54
2021/03/05 01:51:13;;;;;;;44.63;14.78;;;;;;;2.21;74.52;100251.84;124413;1112;24696;-54
2021/03/05 01:53:43;;;;;;;41.77;15.37;;;;;;;2.19;74.44;100251.45;124552;1112;23101;-55
2021/03/05 01:56:29;;;;;;;;;;;;;;;2.18;75.27;100247.16;124596;1112;23490;-57
2021/03/05 01:58:59;;;;;;;37.10;13.23;;;;;;;2.16;75.08;100249.56;124438;1112;23245;-59
2021/03/05 02:01:29;;;;;;;37.42;13.95;;;;;;;2.15;75.29;100252.75;124468;1111;23251;-57
2021/03/05 02:03:58;;;;;;;40.75;14.90;;;;;;;2.13;75.41;100255.91;124615;1112;27306;-56
2021/03/05 02:06:27;;;;;;;38.10;13.43;;;;;;;2.10;75.64;100270.53;124607;1112;23091;-57
2021/03/05 02:08:56;;;;;;;41.63;14.87;;;;;;;2.06;75.23;100261.56;124542;1112;23053;-57
2021/03/05 02:11:26;;;;;;;41.40;15.37;;;;;;;2.09;75.21;100263.45;124817;1112;23045;-57
2021/03/05 02:13:57;;;;;;;38.40;13.03;;;;;;;2.07;75.93;100260.34;124498;1112;26473;-57
2021/03/05 02:16:30;;;;;;;;;;;;;;;2.06;75.74;100253.30;124438;1112;23052;-54
2021/03/05 02:19:07;;;;;;;42.07;15.40;;;;;;;2.05;75.58;100259.23;124475;1112;21553;-56
2021/03/05 02:22:00;;;;;;;37.87;14.17;;;;;;;2.06;75.65;100258.02;124425;1112;26610;-54
2021/03/05 02:25:08;;;;;;;41.77;16.77;;;;;;;2.07;75.92;100256.84;124435;1112;23049;-56
2021/03/05 02:28:00;;;;;;;39.93;14.67;;;;;;;2.09;75.36;100259.95;124431;1111;23097;-55
2021/03/05 02:31:03;;;;;;;46.97;15.60;;;;;;;2.06;75.55;100256.05;124455;1112;23113;-54
2021/03/05 02:33:41;;;;;;;42.57;16.67;;;;;;;2.05;75.52;100248.97;123748;1117;23110;-55
2021/03/05 02:36:16;;;;;;;40.17;15.93;;;;;;;2.04;76.61;100250.19;123724;1119;23232;-53
2021/03/05 02:38:53;;;;;;;43.30;15.60;;;;;;;2.05;76.14;100245.47;123814;1118;26057;-56
2021/03/05 02:41:25;;;;;;;48.13;17.13;;;;;;;2.06;76.46;100256.05;123723;1119;26482;-56
2021/03/05 02:43:57;;;;;;;41.87;16.60;;;;;;;2.04;76.09;100254.91;123821;1118;24721;-56
2021/03/05 02:46:29;;;;;;;45.90;15.77;;;;;;;2.02;76.54;100263.59;124014;1119;23073;-57
2021/03/05 02:48:58;;;;;;;;;;;;;;;2.01;76.80;100264.78;123813;1118;23135;-55
2021/03/05 02:51:31;;;;;;;37.03;14.70;;;;;;;1.98;76.48;100273.90;123857;1117;21548;-54
2021/03/05 02:54:02;;;;;;;38.10;15.25;;;;;;;1.95;76.77;100269.22;123746;1118;23134;-57
2021/03/05 02:56:34;;;;;;;44.47;15.50;;;;;;;1.94;77.10;100280.66;123834;1118;23085;-58
2021/03/05 02:59:04;;;;;;;39.97;16.03;;;;;;;1.94;77.60;100273.19;123846;1119;27838;-57
2021/03/05 03:01:33;;;;;;;;;;;;;;;1.93;77.47;100268.86;123825;1118;27702;-55
2021/03/05 03:04:05;;;;;;;41.50;15.93;;;;;;;1.91;77.00;100271.26;123733;1118;25826;-57
2021/03/05 03:06:35;;;;;;;50.30;16.20;;;;;;;1.91;77.18;100268.50;123800;1118;23066;-57
2021/03/05 03:09:06;;;;;;;48.15;18.42;;;;;;;1.92;76.92;100266.53;123905;1119;23127;-55
2021/03/05 03:11:39;;;;;;;46.60;17.60;;;;;;;1.94;77.01;100275.94;124288;1112;23200;-58
2021/03/05 03:14:09;;;;;;;41.50;16.80;;;;;;;1.95;76.99;100268.44;124432;1112;23052;-56
2021/03/05 03:16:40;;;;;;;44.53;16.20;;;;;;;1.94;78.26;100281.45;124517;1112;23500;-57
2021/03/05 03:19:12;;;;;;;43.53;16.90;;;;;;;1.93;77.38;100279.09;124490;1112;23030;-56
2021/03/05 03:21:42;;;;;;;43.17;17.27;;;;;;;1.93;77.38;100281.84;124604;1111;23043;-56
2021/03/05 03:24:12;;;;;;;40.43;17.15;;;;;;;1.94;77.62;100281.45;124500;1111;26473;-54
2021/03/05 03:26:41;;;;;;;39.18;15.20;;;;;;;1.94;78.16;100286.95;124595;1112;23046;-55
2021/03/05 03:29:11;;;;;;;47.00;17.90;;;;;;;1.94;78.01;100286.16;124418;1112;23029;-55
2021/03/05 03:31:41;;;;;;;;;;;;;;;1.93;77.65;100290.10;124468;1112;23056;-56
2021/03/05 03:34:13;;;;;;;42.87;16.93;;;;;;;1.93;77.88;100293.64;124247;1112;25825;-59
2021/03/05 03:36:44;;;;;;;44.80;17.53;;;;;;;1.93;77.83;100295.61;124388;1112;23099;-57
2021/03/05 03:39:13;;;;;;;40.37;16.90;;;;;;;1.93;77.94;100299.14;124565;1112;23140;-54
2021/03/05 03:41:42;;;;;;;37.75;15.15;;;;;;;1.91;78.32;100298.78;124360;1112;25367;-57
2021/03/05 03:44:13;;;;;;;41.83;16.40;;;;;;;1.89;77.76;100298.42;124319;1112;23025;-56
2021/03/05 03:46:48;;;;;;;42.90;17.13;;;;;;;1.90;77.83;100304.72;124296;1112;23126;-58
2021/03/05 03:49:25;;;;;;;36.80;14.95;;;;;;;1.90;78.03;100300.00;124414;1112;23102;-54
2021/03/05 03:51:57;;;;;;;43.70;16.03;;;;;;;1.87;78.23;100303.58;124397;1112;26440;-59
2021/03/05 03:54:27;;;;;;;45.53;16.77;;;;;;;1.84;78.64;100293.42;124436;1112;23045;-59
2021/03/05 03:56:59;;;;;;;37.95;14.65;;;;;;;1.79;78.72;100304.89;124266;1112;23100;-55
2021/03/05 03:59:31;;;;;;;37.97;16.63;;;;;;;1.75;78.56;100304.17;124355;1112;23048;-58
2021/03/05 04:02:01;;;;;;;29.15;11.75;;;;;;;1.75;78.77;100306.92;124330;1112;27765;-57
2021/03/05 04:04:34;;;;;;;31.87;12.03;;;;;;;1.69;78.46;100322.36;124313;1113;23049;-56
2021/03/05 04:07:03;;;;;;;27.47;10.67;;;;;;;1.67;78.48;100318.45;124485;1112;27784;-57
2021/03/05 04:09:35;;;;;;;28.50;10.57;;;;;;;1.62;78.52;100325.98;124459;1112;23044;-53
2021/03/05 04:12:05;;;;;;;26.53;10.23;;;;;;;1.61;78.47;100329.92;124276;1112;23048;-56
2021/03/05 04:14:33;;;;;;;;;;;;;;;1.57;78.17;100329.20;124367;1112;26061;-55
2021/03/05 04:17:03;;;;;;;21.55;8.05;;;;;;;1.54;77.97;100337.52;124355;1112;21542;-52
2021/03/05 04:19:34;;;;;;;26.07;9.17;;;;;;;1.54;78.62;100337.52;124341;1112;23063;-54
2021/03/05 04:22:04;;;;;;;26.40;9.65;;;;;;;1.48;78.51;100342.72;124436;1112;23051;-54
2021/03/05 04:24:33;;;;;;;25.37;9.28;;;;;;;1.45;79.37;100351.78;124279;1112;25356;-54
2021/03/05 04:27:07;;;;;;;17.27;5.53;;;;;;;1.39;78.97;100353.45;124335;1112;23525;-57
2021/03/05 04:29:37;;;;;;;21.30;6.57;;;;;;;1.36;78.65;100367.25;124487;1112;26543;-56
2021/03/05 04:32:07;;;;;;;15.37;5.33;;;;;;;1.30;78.50;100358.70;124342;1110;23123;-57
2021/03/05 04:34:36;;;;;;;20.65;8.03;;;;;;;1.25;78.39;100367.39;124433;1113;23245;-58
2021/03/05 04:37:05;;;;;;;17.23;5.93;;;;;;;1.24;78.34;100371.32;124559;1112;23043;-54
2021/03/05 04:39:34;;;;;;;19.90;6.50;;;;;;;1.23;78.39;100378.02;124368;1112;23106;-54
2021/03/05 04:42:04;;;;;;;20.23;7.40;;;;;;;1.24;78.80;100378.81;124197;1113;23093;-55
2021/03/05 04:44:33;;;;;;;24.25;7.83;;;;;;;1.26;78.50;100381.93;124474;1112;26560;-53
2021/03/05 04:47:03;;;;;;;19.23;5.87;;;;;;;1.24;78.70;100381.56;124405;1111;27361;-54
2021/03/05 04:49:32;;;;;;;18.98;6.28;;;;;;;1.18;79.02;100388.71;124445;1112;23046;-54
2021/03/05 04:52:01;;;;;;;24.27;7.87;;;;;;;1.15;78.75;100392.27;124382;1112;27765;-52
2021/03/05 04:54:31;;;;;;;25.30;9.70;;;;;;;1.14;78.74;100401.73;124362;1111;23040;-56
2021/03/05 04:57:00;;;;;;;25.57;9.60;;;;;;;1.14;79.05;100388.73;124516;1112;23050;-56
2021/03/05 04:59:28;;;;;;;21.40;7.10;;;;;;;1.14;78.56;100396.98;124386;1112;24689;-54
2021/03/05 05:01:57;;;;;;;28.90;9.10;;;;;;;1.13;78.80;100394.66;124406;1112;26832;-52
2021/03/05 05:04:26;;;;;;;20.40;8.00;;;;;;;1.12;79.23;100390.36;124376;1111;23113;-58
2021/03/05 05:06:55;;;;;;;23.47;9.20;;;;;;;1.11;79.15;100395.08;124424;1112;27365;-53
2021/03/05 05:09:24;;;;;;;19.50;5.80;;;;;;;1.09;79.18;100394.70;124353;1112;26741;-58
2021/03/05 05:11:54;;;;;;;24.90;9.53;;;;;;;1.09;79.17;100400.20;124499;1110;23097;-54
2021/03/05 05:14:23;;;;;;;19.60;7.40;;;;;;;1.09;78.93;100405.70;124917;1103;22983;-58
2021/03/05 05:16:51;;;;;;;26.93;8.70;;;;;;;1.12;79.03;100401.36;124898;1111;26411;-56
2021/03/05 05:19:21;;;;;;;20.10;7.55;;;;;;;1.12;79.18;100407.62;124823;1112;23235;-59
2021/03/05 05:21:50;;;;;;;24.70;7.70;;;;;;;1.05;79.71;100398.69;124857;1112;23088;-57
2021/03/05 05:24:19;;;;;;;22.17;7.63;;;;;;;0.99;78.98;100405.83;124858;1110;23115;-57
2021/03/05 05:26:49;;;;;;;19.65;7.15;;;;;;;0.99;79.12;100409.36;125019;1112;22980;-58
2021/03/05 05:29:18;;;;;;;25.80;9.10;;;;;;;0.97;79.03;100413.70;124950;1112;23081;-57
2021/03/05 05:31:47;;;;;;;20.53;6.70;;;;;;;0.95;79.11;100416.87;124981;1111;23024;-58
2021/03/05 05:34:17;;;;;;;24.50;8.63;;;;;;;0.91;78.92;100418.84;124807;1112;26007;-57
2021/03/05 05:36:47;;;;;;;19.62;6.78;;;;;;;0.90;79.47;100424.77;125026;1112;23252;-56
2021/03/05 05:39:16;;;;;;;19.92;6.42;;;;;;;0.85;79.32;100430.72;125117;1111;26835;-57
2021/03/05 05:41:46;;;;;;;19.33;6.53;;;;;;;0.83;79.36;100433.10;124866;1112;26430;-57
2021/03/05 05:44:15;;;;;;;17.82;6.53;;;;;;;0.86;79.57;100443.27;124951;1112;23029;-57
2021/03/05 05:46:46;;;;;;;18.57;7.43;;;;;;;0.83;78.98;100442.89;124846;1112;23032;-56
2021/03/05 05:49:19;;;;;;;18.93;6.30;;;;;;;0.83;79.38;100447.59;124988;1112;23034;-58
2021/03/05 05:51:48;;;;;;;18.17;5.30;;;;;;;0.83;79.37;100453.09;124879;1110;23235;-57
2021/03/05 05:54:22;;;;;;;17.15;6.45;;;;;;;0.83;79.03;100460.58;124869;1111;26415;-57
2021/03/05 05:56:52;;;;;;;17.47;5.00;;;;;;;0.83;78.75;100464.88;124840;1112;23075;-58
2021/03/05 05:59:24;;;;;;;15.43;5.37;;;;;;;0.85;78.75;100467.21;124901;1112;23191;-57
2021/03/05 06:01:55;;;;;;;14.90;5.60;;;;;;;0.85;78.95;100471.95;124880;1111;23208;-59
2021/03/05 06:04:24;;;;;;;18.50;5.90;;;;;;;0.80;79.06;100468.45;124835;1112;26119;-65
2021/03/05 06:06:54;;;;;;;15.97;4.33;;;;;;;0.76;78.68;100481.45;124552;1110;23096;-56
2021/03/05 06:09:24;;;;;;;15.60;3.98;;;;;;;0.70;78.49;100483.05;124739;1112;24405;-58
2021/03/05 06:11:53;;;;;;;19.67;6.17;;;;;;;0.68;78.52;100495.66;124786;1112;23103;-55
2021/03/05 06:14:22;;;;;;;16.37;5.37;;;;;;;0.67;79.44;100494.87;124812;1111;23033;-57
2021/03/05 06:16:56;;;;;;;16.97;5.30;;;;;;;0.68;79.04;100496.41;124489;1112;23169;-55
2021/03/05 06:19:28;;;;;;;14.90;4.40;;;;;;;0.67;78.64;100496.83;124633;1111;23748;-59
2021/03/05 06:21:58;;;;;;;18.80;5.47;;;;;;;0.68;78.56;100517.64;124580;1112;23103;-56
2021/03/05 06:24:27;;;;;;;16.97;6.00;;;;;;;0.70;78.56;100518.77;124792;1112;23068;-57
2021/03/05 06:26:58;;;;;;;17.82;5.40;;;;;;;0.74;79.16;100532.50;124998;1112;23032;-56
2021/03/05 06:29:29;;;;;;;15.03;4.20;;;;;;;0.75;78.96;100534.84;124915;1112;27528;-56
2021/03/05 06:32:01;;;;;;;20.48;4.78;;;;;;;0.70;78.49;100529.77;124685;1112;23035;-57
2021/03/05 06:34:42;;;;;;;14.00;3.90;;;;;;;0.68;78.45;100537.63;124833;1112;23670;-58
2021/03/05 06:37:11;;;;;;;16.17;3.80;;;;;;;0.72;78.72;100549.37;124615;1111;23103;-61
2021/03/05 06:39:41;;;;;;;15.70;4.17;;;;;;;0.74;78.67;100562.73;125124;1110;23080;-56
2021/03/05 06:42:12;;;;;;;15.60;3.53;;;;;;;0.76;78.66;100566.64;124723;1112;107109;-60
2021/03/05 06:44:42;;;;;;;13.93;3.00;;;;;;;0.81;79.08;100577.19;128258;1111;24697;-59
2021/03/05 06:47:18;;;;;;;14.23;4.17;;;;;;;0.83;78.49;100576.02;125011;1111;22981;-60
2021/03/05 06:49:48;;;;;;;19.27;4.20;;;;;;;0.81;78.22;100587.39;128287;1112;22822;-60
2021/03/05 06:52:19;;;;;;;16.55;3.58;;;;;;;0.81;78.71;100595.63;128187;1112;22841;-60
2021/03/05 06:54:49;;;;;;;13.87;3.47;;;;;;;0.81;77.96;100599.17;128224;1111;23523;-60
2021/03/05 06:57:28;;;;;;;15.55;3.87;;;;;;;0.86;78.78;100608.16;128252;1112;22890;-59
2021/03/05 06:59:57;;;;;;;13.53;3.23;;;;;;;0.87;78.04;100610.50;125734;1111;23008;-59
2021/03/05 07:02:32;;;;;;;15.97;3.13;;;;;;;0.90;77.98;100617.16;124648;1110;23047;-58
2021/03/05 07:05:01;;;;;;;16.53;3.73;;;;;;;0.88;77.52;100614.83;128261;1112;23516;-57
2021/03/05 07:07:41;;;;;;;14.30;3.93;;;;;;;0.90;78.07;100604.21;128232;1111;23003;-57
2021/03/05 07:10:12;;;;;;;13.05;3.08;;;;;;;0.91;77.95;100603.01;128214;1111;23515;-58
2021/03/05 07:13:00;;;;;;;16.80;3.30;;;;;;;0.95;78.49;100616.75;128216;1111;22861;-55
2021/03/05 07:15:30;;;;;;;13.60;3.00;;;;;;;0.98;78.49;100624.17;128226;1111;23454;-58
2021/03/05 07:17:59;;;;;;;15.45;3.10;;;;;;;1.03;77.97;100615.50;128210;1112;23918;-58
2021/03/05 07:20:28;;;;;;;13.23;3.93;;;;;;;1.05;78.40;100622.16;128289;1112;22882;-59
2021/03/05 07:22:59;;;;;;;11.70;3.37;;;;;;;1.06;77.63;100629.20;128243;1111;22851;-57
2021/03/05 07:25:29;;;;;;;20.30;4.50;;;;;;;1.07;77.47;100636.28;128257;1112;23381;-57
2021/03/05 07:27:59;;;;;;;14.23;4.10;;;;;;;1.08;77.58;100640.58;128220;1111;22882;-56
2021/03/05 07:30:29;;;;;;;16.30;4.07;;;;;;;1.10;77.63;100631.92;128218;1111;22936;-57
2021/03/05 07:32:59;;;;;;;;;;;;;;;1.12;77.69;100644.08;128268;1111;23509;-57
2021/03/05 07:35:33;;;;;;;15.63;3.80;;;;;;;1.12;77.47;100648.83;128211;1112;22103;-57
2021/03/05 07:38:03;;;;;;;17.00;4.40;;;;;;;1.15;77.70;100659.78;128207;1112;23506;-58
2021/03/05 07:40:34;;;;;;;12.68;2.87;;;;;;;1.16;77.47;100668.82;128177;1112;25398;-59
2021/03/05 07:43:06;;;;;;;17.03;4.00;;;;;;;1.16;77.64;100663.32;128216;1111;22980;-58
2021/03/05 07:45:35;;;;;;;13.43;3.77;;;;;;;1.16;77.36;100661.33;128217;1112;22933;-57
2021/03/05 07:48:11;;;;;;;14.65;3.40;;;;;;;1.14;76.51;100671.95;128265;1111;22922;-57
2021/03/05 07:50:41;;;;;;;12.00;2.60;;;;;;;1.14;75.89;100676.70;128193;1111;22842;-58
2021/03/05 07:53:11;;;;;;;17.20;2.37;;;;;;;1.09;75.82;100675.16;128228;1112;23783;-59
2021/03/05 07:55:41;;;;;;;12.40;2.57;;;;;;;1.07;76.35;100672.02;128259;1112;23668;-57
2021/03/05 07:58:10;;;;;;;13.55;3.40;;;;;;;1.06;75.68;100689.70;128232;1111;22841;-57
2021/03/05 08:00:48;;;;;;;16.50;3.80;;;;;;;1.06;75.58;100689.70;128155;1112;22924;-56
2021/03/05 08:03:19;;;;;;;10.47;2.70;;;;;;;1.09;76.29;100688.11;128175;1110;23621;-56
2021/03/05 08:05:50;;;;;;;13.53;3.07;;;;;;;1.13;76.57;100688.86;128162;1112;23417;-57
2021/03/05 08:08:24;;;;;;;13.30;2.90;;;;;;;1.15;76.51;100694.74;128191;1111;22882;-57
2021/03/05 08:10:58;;;;;;;12.70;2.73;;;;;;;1.14;76.26;100704.95;128201;1112;22848;-58
2021/03/05 08:13:48;;;;;;;15.80;2.87;;;;;;;1.16;75.81;100712.82;128229;1112;23331;-58
2021/03/05 08:16:48;;;;;;;14.40;2.35;;;;;;;1.11;75.08;100721.48;128197;1111;22896;-58
2021/03/05 08:19:43;;;;;;;11.13;2.23;;;;;;;1.09;74.99;100721.11;128229;1111;22972;-58
2021/03/05 08:22:13;;;;;;;17.03;3.00;;;;;;;1.07;75.18;100732.52;128243;1112;22862;-59
2021/03/05 08:24:42;;;;;;;13.03;2.65;;;;;;;1.12;75.04;100734.82;128181;1112;22863;-58
2021/03/05 08:27:35;;;;;;;8.13;1.73;;;;;;;1.19;74.89;100743.03;128241;1111;23742;-57
2021/03/05 08:30:08;;;;;;;9.20;2.00;;;;;;;1.26;75.35;100733.95;128217;1112;22877;-59
2021/03/05 08:32:54;;;;;;;12.17;2.23;;;;;;;1.29;74.82;100742.17;128204;1112;22880;-58
2021/03/05 08:35:45;;;;;;;10.03;1.83;;;;;;;1.28;73.75;100743.34;128194;1112;22882;-58
2021/03/05 08:38:17;;;;;;;11.37;1.83;;;;;;;1.29;74.36;100742.17;128164;1111;23024;-59
2021/03/05 08:41:03;;;;;;;10.83;1.90;;;;;;;1.33;74.88;100750.39;128153;1112;27897;-59
2021/03/05 08:43:37;;;;;;;10.47;2.27;;;;;;;1.41;74.65;100751.90;125038;1112;25436;-57
2021/03/05 08:46:07;;;;;;;9.87;1.53;;;;;;;1.43;74.37;100755.81;124006;1111;28696;-58
2021/03/05 08:48:41;;;;;;;7.27;1.33;;;;;;;1.44;73.33;100760.14;124010;1112;23025;-58
2021/03/05 08:51:16;;;;;;;5.07;1.10;;;;;;;1.43;73.60;100760.53;128176;1111;22896;-58
2021/03/05 08:53:50;;;;;;;9.63;1.57;;;;;;;1.43;73.48;100764.07;128172;1111;22869;-58
2021/03/05 08:56:23;;;;;;;8.33;1.33;;;;;;;1.47;73.79;100761.28;128200;1111;22846;-57
2021/03/05 08:59:00;;;;;;;7.10;1.20;;;;;;;1.51;72.83;100751.06;128180;1111;22948;-58
2021/03/05 09:01:32;;;;;;;6.40;1.13;;;;;;;1.59;73.33;100755.31;128208;1112;23425;-58
2021/03/05 09:04:12;;;;;;;3.57;0.80;;;;;;;1.74;71.42;100758.73;128171;1112;22939;-58
2021/03/05 09:06:56;;;;;;;4.17;0.70;;;;;;;1.80;72.72;100766.13;128177;1112;23780;-57
2021/03/05 09:09:26;;;;;;;7.53;1.00;;;;;;;1.96;72.63;100755.37;128216;1111;23496;-56
2021/03/05 09:12:13;;;;;;;8.93;1.10;;;;;;;2.09;71.44;100770.17;128175;1111;23004;-59
2021/03/05 09:14:43;;;;;;;12.13;1.73;;;;;;;2.14;70.29;100777.22;128228;1111;22822;-59
2021/03/05 09:17:14;;;;;;;13.90;1.40;;;;;;;2.10;69.63;100773.72;128180;1110;22896;-58
2021/03/05 09:19:44;;;;;;;9.90;1.07;;;;;;;2.09;71.38;100769.41;128169;1111;22829;-58
2021/03/05 09:22:16;;;;;;;8.05;1.25;;;;;;;2.14;71.85;100778.00;128161;1112;23905;-60
2021/03/05 09:24:56;;;;;;;12.40;2.03;;;;;;;2.21;71.72;100779.91;128176;1112;22875;-60
2021/03/05 09:27:27;;;;;;;7.53;1.57;;;;;;;2.23;71.66;100778.31;128143;1111;22897;-58
2021/03/05 09:29:57;;;;;;;11.53;1.80;;;;;;;2.23;71.11;100783.83;124922;1111;23066;-58
2021/03/05 09:32:26;;;;;;;10.75;1.87;;;;;;;2.22;71.66;100781.45;128215;1110;22867;-57
2021/03/05 09:34:58;;;;;;;12.03;1.90;;;;;;;2.22;70.99;100782.25;128196;1112;22870;-58
2021/03/05 09:37:28;;;;;;;6.60;1.00;;;;;;;2.21;70.47;100794.47;128219;1111;22805;-56
2021/03/05 09:39:58;;;;;;;6.90;1.20;;;;;;;2.16;69.87;100796.87;128156;1111;22980;-59
2021/03/05 09:42:52;;;;;;;7.08;1.05;;;;;;;2.13;69.63;100794.95;128136;1112;28942;-59
2021/03/05 09:45:36;;;;;;;4.83;1.10;;;;;;;2.13;69.60;100792.19;128169;1112;22956;-59
2021/03/05 09:48:07;;;;;;;5.90;1.17;;;;;;;2.10;69.81;100802.05;128231;1110;22868;-58
2021/03/05 09:50:37;;;;;;;6.37;0.93;;;;;;;2.08;69.24;100806.39;128191;1111;22850;-58
2021/03/05 09:53:25;;;;;;;6.25;1.00;;;;;;;2.05;69.33;100810.73;128202;1112;22807;-59
2021/03/05 09:55:55;;;;;;;6.90;0.80;;;;;;;2.05;68.71;100824.50;128193;1111;23533;-58
2021/03/05 09:58:25;;;;;;;11.30;1.77;;;;;;;2.08;69.71;100817.41;128157;1111;22860;-59
2021/03/05 10:00:55;;;;;;;6.70;1.10;;;;;;;2.14;68.26;100819.31;128200;1112;22864;-59
2021/03/05 10:03:24;;;;;;;;;;;;;;;2.17;69.00;100823.23;128207;1111;22861;-59
2021/03/05 10:05:54;;;;;;;5.23;1.17;;;;;;;2.19;69.05;100827.13;128219;1111;21379;-59
2021/03/05 10:08:27;;;;;;;6.22;1.10;;;;;;;2.22;68.67;100828.28;128182;1112;22995;-58
2021/03/05 10:10:58;;;;;;;8.07;1.27;;;;;;;2.23;67.52;100830.66;128211;1111;23702;-58
2021/03/05 10:13:49;;;;;;;5.07;0.80;;;;;;;2.25;67.15;100838.50;128232;1111;22862;-59
2021/03/05 10:16:25;;;;;;;11.00;1.20;;;;;;;2.28;67.69;100849.48;128132;1111;22942;-59
2021/03/05 10:18:56;;;;;;;6.40;0.90;;;;;;;2.32;67.25;100841.96;128197;1111;23925;-59
2021/03/05 10:21:25;;;;;;;4.73;0.70;;;;;;;2.36;65.78;100842.70;128197;1112;22857;-59
2021/03/05 10:23:55;;;;;;;5.23;0.63;;;;;;;2.42;64.46;100846.58;128191;1111;23116;-58
2021/03/05 10:26:26;;;;;;;6.10;0.80;;;;;;;2.48;63.58;100852.45;128205;1110;22870;-57
2021/03/05 10:28:58;;;;;;;5.27;0.83;;;;;;;2.55;66.29;100863.38;128139;1112;22838;-59
2021/03/05 10:31:48;;;;;;;7.87;0.70;;;;;;;2.59;66.61;100857.86;128159;1112;22865;-59
2021/03/05 10:34:23;;;;;;;6.95;0.90;;;;;;;2.61;65.69;100856.23;128158;1111;22864;-59
2021/03/05 10:36:54;;;;;;;8.57;0.80;;;;;;;2.65;65.71;100859.73;128152;1111;22985;-59
2021/03/05 10:39:23;;;;;;;8.50;0.80;;;;;;;2.76;65.44;100865.13;128159;1111;23962;-57
2021/03/05 10:41:57;;;;;;;4.28;0.75;;;;;;;2.87;64.66;100868.56;128088;1111;32374;-59
2021/03/05 10:44:27;;;;;;;5.37;0.80;;;;;;;2.94;65.75;100873.97;128133;1112;22857;-58
2021/03/05 10:46:58;;;;;;;7.00;0.80;;;;;;;3.02;65.16;100867.96;128138;1112;22831;-58
2021/03/05 10:49:28;;;;;;;4.50;0.80;;;;;;;3.06;64.76;100865.19;128144;1111;22869;-59
2021/03/05 10:52:00;;;;;;;4.97;0.75;;;;;;;3.05;63.92;100869.12;128160;1112;23790;-58
2021/03/05 10:54:30;;;;;;;6.40;0.90;;;;;;;3.01;64.46;100868.38;128158;1111;23029;-59
2021/03/05 10:56:59;;;;;;;2.70;0.53;;;;;;;3.00;63.17;100875.11;128169;1112;22960;-58
2021/03/05 10:59:28;;;;;;;4.13;0.60;;;;;;;2.94;63.66;100874.77;128143;1112;22892;-60
2021/03/05 11:01:57;;;;;;;5.00;0.50;;;;;;;2.91;63.16;100885.84;128125;1111;22974;-58
2021/03/05 11:04:27;;;;;;;3.20;0.40;;;;;;;2.87;63.49;100885.10;128214;1112;22885;-58
2021/03/05 11:06:56;;;;;;;3.67;0.35;;;;;;;2.87;61.72;100885.89;128122;1112;23518;-59
2021/03/05 11:09:27;;;;;;;3.03;0.40;;;;;;;2.88;62.59;100883.89;128152;1112;23467;-58
2021/03/05 11:11:57;;;;;;;3.83;0.47;;;;;;;2.89;62.89;100889.02;128156;1112;23643;-59
2021/03/05 11:14:27;;;;;;;3.58;0.50;;;;;;;2.95;63.00;100886.58;128107;1111;22829;-58
2021/03/05 11:16:56;;;;;;;4.12;0.62;;;;;;;3.06;62.92;100888.02;128229;1112;22891;-57
2021/03/05 11:19:26;;;;;;;3.60;0.43;;;;;;;3.14;59.34;100891.48;128254;1111;23318;-59
2021/03/05 11:21:55;;;;;;;3.62;0.50;;;;;;;3.18;62.08;100889.46;128129;1111;22842;-57
2021/03/05 11:24:24;;;;;;;4.87;0.57;;;;;;;3.26;62.43;100875.16;128159;1111;23014;-55
2021/03/05 11:26:54;;;;;;;2.37;0.40;;;;;;;3.33;61.44;100888.09;128165;1111;24049;-57
2021/03/05 11:29:23;;;;;;;2.23;0.47;;;;;;;3.36;61.65;100881.73;128102;1110;22794;-59
2021/03/05 11:31:51;;;;;;;3.70;0.50;;;;;;;3.33;59.68;100890.06;128123;1111;22884;-59
2021/03/05 11:34:20;;;;;;;3.37;0.43;;;;;;;3.27;60.45;100886.96;128174;1112;22899;-57
2021/03/05 11:36:53;;;;;;;4.30;0.60;;;;;;;3.24;60.01;100883.08;128126;1112;24224;-60
2021/03/05 11:39:22;;;;;;;7.57;0.70;;;;;;;3.26;60.45;100891.72;128107;1110;22916;-58
2021/03/05 11:41:51;;;;;;;5.40;0.70;;;;;;;3.29;60.72;100896.39;128027;1111;27297;-59